Time;durP1;ratioP1;P1;durP2;ratioP2;P2;SDS_P1;SDS_P2;PMS_P1;PMS_P2;Temp;Humidity;BMP_temperature;BMP_pressure;BME280_temperature;BME280_humidity;BME280_pressure;Samples;Min_cycle;Max_cycle;Signal;HPM_P1;HPM_P2
2022/05/14 00:01:21;;;;;;;18.02;5.03;;;;;;;12.25;92.60;101811.16;4977361;28;20033;-75
2022/05/14 00:03:47;;;;;;;16.17;4.72;;;;;;;12.26;92.65;101815.50;4983785;28;20022;-75
2022/05/14 00:06:17;;;;;;;13.63;4.05;;;;;;;12.17;92.23;101799.56;4961141;28;20478;-75
2022/05/14 00:08:43;;;;;;;14.10;3.23;;;;;;;12.19;93.13;101811.69;4984667;28;20109;-75
2022/05/14 00:13:53;;;;;;;7.22;3.38;;;;;;;12.09;93.19;101803.75;4966348;28;20097;-75
2022/05/14 00:16:21;;;;;;;13.75;4.05;;;;;;;12.11;92.91;101816.84;4984327;28;20026;-76
2022/05/14 00:18:47;;;;;;;11.15;3.50;;;;;;;12.00;93.21;101801.06;4965359;28;20485;-76
2022/05/14 00:21:13;;;;;;;12.50;4.18;;;;;;;12.10;94.17;101823.09;4978233;28;20062;-75
2022/05/14 00:23:39;;;;;;;14.32;3.80;;;;;;;12.11;92.69;101819.50;4977574;28;20050;-74
2022/05/14 00:26:04;;;;;;;9.63;3.20;;;;;;;12.10;93.25;101810.72;4986653;28;20416;-75
2022/05/14 00:28:30;;;;;;;12.07;4.82;;;;;;;12.11;92.91;101816.84;4976755;28;20416;-75
2022/05/14 00:30:55;;;;;;;12.88;3.50;;;;;;;12.06;93.60;101814.63;4986715;28;20030;-75
2022/05/14 00:33:21;;;;;;;13.45;3.78;;;;;;;12.06;93.26;101813.75;4960767;28;20030;-75
2022/05/14 00:35:47;;;;;;;17.00;4.20;;;;;;;12.11;93.78;101816.84;4979719;28;20021;-75
2022/05/14 00:38:13;;;;;;;20.58;4.15;;;;;;;12.06;94.00;101816.41;4977589;28;20031;-75
2022/05/14 00:40:42;;;;;;;10.55;4.38;;;;;;;12.15;94.17;101836.78;4961605;28;20040;-75
2022/05/14 00:43:09;;;;;;;13.02;3.60;;;;;;;12.14;93.53;101827.16;4981345;28;20068;-76
2022/05/14 00:45:38;;;;;;;16.75;4.35;;;;;;;12.16;94.43;101827.84;4962094;28;20565;-75
2022/05/14 00:48:06;;;;;;;14.38;3.97;;;;;;;12.16;95.13;101819.91;4983321;28;20474;-75
2022/05/14 00:50:39;;;;;;;9.95;3.25;;;;;;;12.16;94.40;101819.91;4979113;28;20038;-75
2022/05/14 00:53:18;;;;;;;13.60;3.95;;;;;;;12.14;95.29;101820.03;4977536;28;20502;-75
2022/05/14 00:55:46;;;;;;;14.32;4.50;;;;;;;12.10;96.29;101815.16;4960334;28;20033;-75
2022/05/14 00:58:23;;;;;;;15.50;3.45;;;;;;;12.06;95.03;101819.91;4977374;28;20504;-75
2022/05/14 01:00:48;;;;;;;13.02;3.55;;;;;;;12.03;96.26;101812.22;4964168;28;20019;-72
2022/05/14 01:03:14;;;;;;;16.30;3.85;;;;;;;12.06;97.39;101808.47;4982703;28;20061;-72
2022/05/14 01:05:39;;;;;;;16.63;4.60;;;;;;;12.03;97.13;101819.34;4984437;28;20573;-72
2022/05/14 01:08:05;;;;;;;19.00;4.07;;;;;;;11.99;97.44;101817.94;4979747;28;20030;-72
2022/05/14 01:10:36;;;;;;;12.45;3.88;;;;;;;12.01;97.23;101827.41;4985195;28;20498;-72
2022/05/14 01:13:03;;;;;;;12.57;3.92;;;;;;;12.01;97.18;101829.22;4982713;28;20508;-72
2022/05/14 01:15:51;;;;;;;13.95;4.05;;;;;;;11.92;97.76;101834.34;4965788;28;20425;-72
2022/05/14 01:18:20;;;;;;;12.40;4.05;;;;;;;11.90;98.34;101819.56;4981421;28;20383;-72
2022/05/14 01:20:57;;;;;;;12.73;3.92;;;;;;;11.84;98.88;101822.72;4983903;28;20030;-72
2022/05/14 01:26:36;;;;;;;16.38;4.20;;;;;;;11.81;98.88;101821.19;4980692;28;20089;-72
2022/05/14 01:29:06;;;;;;;26.10;4.32;;;;;;;11.82;99.05;101825.50;4956207;28;20049;-72
2022/05/14 01:31:31;;;;;;;22.50;4.30;;;;;;;11.72;98.59;101816.72;4984059;28;20026;-72
2022/05/14 01:34:05;;;;;;;16.02;4.70;;;;;;;11.82;98.95;101829.97;4965900;28;20161;-72
2022/05/14 01:36:31;;;;;;;19.92;4.60;;;;;;;11.81;99.97;101839.69;4988880;28;20022;-72
2022/05/14 01:38:56;;;;;;;18.35;4.43;;;;;;;11.80;99.47;101840.69;4985656;28;20033;-72
2022/05/14 01:41:22;;;;;;;16.33;4.55;;;;;;;11.79;100.00;101839.00;4973643;28;20069;-72
2022/05/14 01:43:48;;;;;;;12.73;4.20;;;;;;;11.75;99.77;101832.31;4986655;28;20041;-72
2022/05/14 01:46:13;;;;;;;13.32;4.18;;;;;;;11.83;100.00;101843.06;4983509;28;20031;-72
2022/05/14 01:48:39;;;;;;;14.85;4.65;;;;;;;11.81;100.00;101833.59;4982962;28;20158;-72
2022/05/14 01:51:05;;;;;;;19.17;4.35;;;;;;;11.73;100.00;101818.38;4981220;28;20035;-72
2022/05/14 01:53:31;;;;;;;16.88;4.28;;;;;;;11.76;100.00;101835.78;4962968;28;20038;-71
2022/05/14 01:55:56;;;;;;;14.82;3.80;;;;;;;11.83;100.00;101847.53;4980390;28;20022;-71
2022/05/14 01:58:37;;;;;;;16.65;4.50;;;;;;;11.81;100.00;101857.38;4983946;28;20040;-71
2022/05/14 02:01:25;;;;;;;20.02;5.13;;;;;;;11.84;100.00;101842.06;4978659;28;20037;-71
2022/05/14 02:03:54;;;;;;;17.27;4.63;;;;;;;11.82;100.00;101846.66;4985592;28;20030;-72
2022/05/14 02:06:21;;;;;;;15.65;4.60;;;;;;;11.80;100.00;101840.69;4980432;28;20054;-72
2022/05/14 02:08:46;;;;;;;13.65;4.75;;;;;;;11.65;100.00;101818.19;4975506;28;20030;-72
2022/05/14 02:11:13;;;;;;;19.02;4.63;;;;;;;11.71;100.00;101841.47;4954685;28;20481;-72
2022/05/14 02:13:40;;;;;;;14.75;4.40;;;;;;;11.64;100.00;101821.81;4959761;28;20113;-72
2022/05/14 02:16:05;;;;;;;18.30;4.28;;;;;;;11.62;100.00;101821.13;4967416;28;20114;-72
2022/05/14 02:18:30;;;;;;;10.60;5.00;;;;;;;11.69;100.00;101840.75;4980432;28;20113;-72
2022/05/14 02:20:56;;;;;;;19.58;5.03;;;;;;;11.62;100.00;101831.69;4975088;28;20038;-72
2022/05/14 02:23:22;;;;;;;16.02;5.10;;;;;;;11.62;100.00;101842.28;4986008;28;20030;-72
2022/05/14 02:25:47;;;;;;;14.45;4.55;;;;;;;11.55;100.00;101830.56;4977063;28;20054;-72
2022/05/14 02:28:14;;;;;;;23.13;5.35;;;;;;;11.49;100.00;101838.03;4979983;28;20042;-72
2022/05/14 02:30:39;;;;;;;13.15;4.50;;;;;;;11.39;100.00;101825.72;4986826;28;20514;-72
2022/05/14 02:33:05;;;;;;;19.73;5.05;;;;;;;11.38;100.00;101838.13;4977083;28;20088;-72
2022/05/14 02:35:31;;;;;;;13.98;5.65;;;;;;;11.33;100.00;101845.59;4983966;28;20026;-72
2022/05/14 02:37:56;;;;;;;19.10;4.97;;;;;;;11.20;100.00;101834.41;4966545;28;20076;-72
2022/05/14 02:40:22;;;;;;;28.13;5.40;;;;;;;11.22;100.00;101850.97;4980793;28;20033;-72
2022/05/14 02:42:47;;;;;;;16.83;4.63;;;;;;;11.16;100.00;101846.19;4988631;28;20433;-72
2022/05/14 02:45:13;;;;;;;15.43;4.57;;;;;;;11.07;100.00;101853.91;4950677;28;20035;-72
2022/05/14 02:47:38;;;;;;;18.33;5.38;;;;;;;11.07;100.00;101858.38;4988071;28;20121;-72
2022/05/14 02:50:06;;;;;;;24.63;5.60;;;;;;;11.03;100.00;101851.66;4983013;28;20509;-72
2022/05/14 02:52:32;;;;;;;21.48;5.60;;;;;;;10.94;100.00;101839.25;4967005;28;20037;-72
2022/05/14 02:54:58;;;;;;;25.45;5.75;;;;;;;10.96;100.00;101845.22;4950561;28;20385;-71
2022/05/14 02:57:23;;;;;;;19.70;5.65;;;;;;;10.93;100.00;101851.63;4984111;28;20030;-71
2022/05/14 02:59:49;;;;;;;23.88;5.40;;;;;;;10.91;100.00;101853.53;4985973;28;20034;-72
2022/05/14 03:02:14;;;;;;;12.60;4.15;;;;;;;10.80;100.00;101840.38;4983508;28;20037;-72
2022/05/14 03:04:40;;;;;;;29.08;5.55;;;;;;;10.87;100.00;101857.41;4968822;28;20062;-72
2022/05/14 03:07:08;;;;;;;21.15;4.95;;;;;;;10.82;100.00;101854.28;4987648;28;20023;-72
2022/05/14 03:09:36;;;;;;;18.15;5.60;;;;;;;10.80;100.00;101857.06;4987714;28;20057;-72
2022/05/14 03:12:02;;;;;;;17.10;5.57;;;;;;;10.64;100.00;101839.00;4970101;28;20026;-72
2022/05/14 03:14:27;;;;;;;16.45;4.78;;;;;;;10.77;100.00;101856.47;4985631;28;20626;-72
2022/05/14 03:16:53;;;;;;;21.05;5.72;;;;;;;10.64;100.00;101832.88;4972216;28;20054;-72
2022/05/14 03:19:18;;;;;;;20.58;5.50;;;;;;;10.72;100.00;101863.94;4968539;28;20058;-72
2022/05/14 03:21:43;;;;;;;16.38;5.10;;;;;;;10.68;100.00;101861.53;4987016;28;20053;-72
2022/05/14 03:24:10;;;;;;;17.90;5.20;;;;;;;10.53;100.00;101840.84;4985442;28;20059;-72
2022/05/14 03:26:40;;;;;;;16.23;5.55;;;;;;;10.51;100.00;101862.06;4976229;28;20071;-72
2022/05/14 03:29:07;;;;;;;18.92;5.75;;;;;;;10.34;100.00;101849.41;4971458;28;20065;-72
2022/05/14 03:31:33;;;;;;;23.67;6.85;;;;;;;10.28;100.00;101841.00;4988986;28;20089;-72
2022/05/14 03:33:58;;;;;;;21.98;6.03;;;;;;;10.46;100.00;101880.09;4966875;28;20061;-72
2022/05/14 03:36:23;;;;;;;15.57;5.78;;;;;;;10.33;100.00;101856.50;4983527;28;20019;-72
2022/05/14 03:38:49;;;;;;;21.45;5.95;;;;;;;10.37;100.00;101860.56;4951163;28;20038;-72
2022/05/14 03:41:16;;;;;;;31.13;8.73;;;;;;;10.41;100.00;101877.84;4968091;28;20034;-72
2022/05/14 03:43:44;;;;;;;24.38;5.88;;;;;;;10.41;100.00;101874.34;4986500;28;20433;-72
2022/05/14 03:46:10;;;;;;;21.25;5.72;;;;;;;10.35;100.00;101867.78;4986725;28;20026;-72
2022/05/14 03:48:36;;;;;;;17.65;5.30;;;;;;;10.41;100.00;101877.84;4987138;28;20448;-72
2022/05/14 03:51:03;;;;;;;35.88;6.90;;;;;;;10.29;100.00;101858.53;4986501;28;20112;-71
2022/05/14 03:53:29;;;;;;;20.40;6.20;;;;;;;10.34;100.00;101867.88;4972008;28;20502;-71
2022/05/14 03:55:55;;;;;;;23.58;5.65;;;;;;;10.35;100.00;101875.69;4959450;28;20037;-71
2022/05/14 03:58:20;;;;;;;18.58;5.93;;;;;;;10.36;100.00;101889.72;4968041;28;20043;-71
2022/05/14 04:00:46;;;;;;;18.73;6.22;;;;;;;10.41;100.00;101892.81;4966394;28;20031;-71
2022/05/14 04:03:12;;;;;;;24.95;7.00;;;;;;;10.43;100.00;101896.16;4976137;28;20030;-71
2022/05/14 04:05:37;;;;;;;21.92;6.45;;;;;;;10.41;100.00;101900.72;4975711;28;20065;-71
2022/05/14 04:08:03;;;;;;;22.05;5.72;;;;;;;10.37;100.00;101886.13;4977040;28;20490;-71
2022/05/14 04:10:30;;;;;;;20.17;4.95;;;;;;;10.37;100.00;101884.31;4957800;28;20042;-72
2022/05/14 04:12:55;;;;;;;17.00;5.25;;;;;;;10.41;100.00;101887.53;4970104;28;20030;-72
2022/05/14 04:15:23;;;;;;;25.13;6.15;;;;;;;10.49;100.00;101904.47;4985354;28;20549;-72
2022/05/14 04:17:50;;;;;;;21.38;6.47;;;;;;;10.43;100.00;101906.72;4967134;28;20434;-72
2022/05/14 04:20:15;;;;;;;25.65;7.25;;;;;;;10.39;100.00;101889.47;4983490;28;20049;-72
2022/05/14 04:22:41;;;;;;;19.98;5.00;;;;;;;10.50;100.00;101910.56;4953216;28;20082;-72
2022/05/14 04:25:07;;;;;;;23.98;6.18;;;;;;;10.54;100.00;101905.84;4985547;28;20094;-72
2022/05/14 04:27:33;;;;;;;16.70;5.18;;;;;;;10.57;100.00;101914.38;4985691;28;20057;-72
2022/05/14 04:29:59;;;;;;;21.17;5.07;;;;;;;10.55;100.00;101904.91;4986722;28;20034;-72
2022/05/14 04:32:24;;;;;;;25.27;5.47;;;;;;;10.65;100.00;101911.13;5004756;28;20457;-72
2022/05/14 04:34:50;;;;;;;26.88;6.18;;;;;;;10.65;100.00;101911.13;4975403;28;20073;-72
2022/05/14 04:37:15;;;;;;;20.73;5.53;;;;;;;10.68;100.00;101922.25;4990365;28;20031;-72
2022/05/14 04:39:40;;;;;;;18.73;5.85;;;;;;;10.72;100.00;101924.69;4989062;28;20030;-72
2022/05/14 04:42:09;;;;;;;22.65;5.38;;;;;;;10.66;100.00;101913.63;4977005;28;20039;-72
2022/05/14 04:44:36;;;;;;;24.63;5.53;;;;;;;10.78;100.00;101919.72;4984575;28;20485;-70
2022/05/14 04:47:03;;;;;;;22.15;5.55;;;;;;;10.82;100.00;101933.50;4983898;28;20071;-71
2022/05/14 04:49:29;;;;;;;21.67;5.75;;;;;;;10.68;100.00;101906.44;4962112;28;20061;-71
2022/05/14 04:51:54;;;;;;;21.15;5.55;;;;;;;10.86;100.00;101921.72;4983982;28;20506;-71
2022/05/14 04:54:20;;;;;;;22.60;5.93;;;;;;;10.99;100.00;101925.03;4980771;28;20105;-71
2022/05/14 04:56:46;;;;;;;23.15;5.65;;;;;;;11.12;100.00;101936.25;4984049;28;20480;-71
2022/05/14 04:59:11;;;;;;;18.85;5.60;;;;;;;11.20;100.00;101932.19;4982961;28;20035;-71
2022/05/14 05:01:37;;;;;;;20.70;5.38;;;;;;;11.25;100.00;101940.53;4985397;28;20034;-71
2022/05/14 05:04:02;;;;;;;20.20;5.57;;;;;;;11.31;100.00;101943.50;4985394;28;20112;-71
2022/05/14 05:06:28;;;;;;;26.40;5.85;;;;;;;11.30;100.00;101927.78;4979816;28;20403;-71
2022/05/14 05:08:54;;;;;;;26.30;5.57;;;;;;;11.38;100.00;101925.34;4962146;28;20520;-71
2022/05/14 05:11:20;;;;;;;19.35;4.43;;;;;;;11.58;100.00;101950.09;4985920;28;20040;-71
2022/05/14 05:13:46;;;;;;;20.35;6.10;;;;;;;11.52;100.00;101926.84;4978056;28;20026;-71
2022/05/14 05:16:11;;;;;;;21.35;4.85;;;;;;;11.73;100.00;101953.25;4962889;28;20041;-71
2022/05/14 05:18:38;;;;;;;19.13;4.80;;;;;;;11.84;99.66;101950.53;4983856;28;20055;-71
2022/05/14 05:21:04;;;;;;;23.55;5.50;;;;;;;11.95;99.46;101949.63;4959368;28;20498;-71
2022/05/14 05:23:29;;;;;;;12.38;4.05;;;;;;;11.98;99.50;101935.31;4994573;28;20034;-71
2022/05/14 05:25:56;;;;;;;19.85;5.20;;;;;;;12.13;99.62;101947.22;4940129;28;20041;-71
2022/05/14 05:28:23;;;;;;;22.17;5.30;;;;;;;12.21;98.42;101957.13;4981619;28;20416;-71
2022/05/14 05:30:49;;;;;;;17.27;4.53;;;;;;;12.26;98.42;101955.78;4963752;28;20073;-71
2022/05/14 05:33:17;;;;;;;19.63;5.72;;;;;;;12.36;98.37;101955.78;4987394;28;20053;-71
2022/05/14 05:35:43;;;;;;;14.95;4.55;;;;;;;12.43;97.21;101953.44;4968594;28;20050;-71
2022/05/14 05:38:09;;;;;;;15.00;4.72;;;;;;;12.59;95.81;101964.38;4986025;28;20030;-71
2022/05/14 05:40:35;;;;;;;20.90;5.07;;;;;;;12.70;95.69;101958.94;4979974;28;20031;-71
2022/05/14 05:43:00;;;;;;;20.05;5.47;;;;;;;12.89;94.67;101966.09;4981882;28;20279;-71
2022/05/14 05:45:26;;;;;;;17.58;4.65;;;;;;;12.91;94.70;101968.59;4981971;28;20023;-71
2022/05/14 05:47:51;;;;;;;16.15;4.57;;;;;;;13.08;93.56;101980.31;4961287;28;20034;-71
2022/05/14 05:50:17;;;;;;;13.15;3.90;;;;;;;13.16;93.03;101968.06;4989398;28;20080;-71
2022/05/14 05:52:43;;;;;;;18.45;4.80;;;;;;;13.26;92.30;101969.84;4987410;28;20408;-71
2022/05/14 05:57:53;;;;;;;18.60;6.50;;;;;;;13.54;91.52;101992.91;4981438;28;20046;-71
2022/05/14 06:00:23;;;;;;;16.60;4.55;;;;;;;13.63;90.33;101985.06;4965278;28;20034;-71
2022/05/14 06:02:49;;;;;;;21.75;4.50;;;;;;;13.83;89.06;101996.47;4985987;28;20053;-72
2022/05/14 06:05:15;;;;;;;17.67;4.15;;;;;;;13.95;88.16;101998.00;4981802;28;20033;-71
2022/05/14 06:07:42;;;;;;;14.82;3.97;;;;;;;14.10;87.33;101998.38;4983989;28;20149;-71
2022/05/14 06:10:10;;;;;;;18.17;4.95;;;;;;;14.13;86.69;101987.44;4971896;28;20167;-71
2022/05/14 06:12:38;;;;;;;15.85;4.10;;;;;;;14.42;85.30;101999.78;4979992;28;20030;-71
2022/05/14 06:15:08;;;;;;;17.65;3.65;;;;;;;14.67;84.79;101999.09;4984890;28;20113;-71
2022/05/14 06:17:34;;;;;;;25.45;4.80;;;;;;;14.81;83.64;102008.41;4986875;28;20049;-71
2022/05/14 06:19:59;;;;;;;18.00;4.50;;;;;;;15.03;82.85;102009.81;4983004;28;20027;-71
2022/05/14 06:22:24;;;;;;;19.73;4.53;;;;;;;15.22;82.50;102011.47;4979675;28;20405;-71
2022/05/14 06:24:50;;;;;;;13.82;3.70;;;;;;;15.37;81.84;102017.09;4959674;28;20105;-71
2022/05/14 06:27:15;;;;;;;14.68;4.95;;;;;;;15.55;80.46;102023.25;4980439;28;20046;-71
2022/05/14 06:29:40;;;;;;;13.25;3.58;;;;;;;15.44;79.48;102012.84;4975503;28;20031;-72
2022/05/14 06:32:06;;;;;;;13.13;3.83;;;;;;;15.27;79.51;102019.00;4967202;28;20045;-71
2022/05/14 06:34:32;;;;;;;21.63;4.80;;;;;;;15.16;79.61;102020.06;4957730;28;20480;-71
2022/05/14 06:36:57;;;;;;;18.48;3.38;;;;;;;15.30;79.16;102030.16;4962739;28;20034;-71
2022/05/14 06:39:23;;;;;;;11.32;3.25;;;;;;;15.46;78.78;102023.31;4979374;28;20046;-71
2022/05/14 06:41:48;;;;;;;12.40;3.40;;;;;;;16.01;77.46;102034.59;4960567;28;20471;-71
2022/05/14 06:44:13;;;;;;;20.02;3.72;;;;;;;16.65;76.28;102042.22;4975763;28;20039;-72
2022/05/14 06:46:39;;;;;;;11.75;3.63;;;;;;;17.16;74.50;102021.72;4976169;28;20043;-72
2022/05/14 06:49:04;;;;;;;17.13;4.40;;;;;;;17.80;70.80;102040.59;4962775;28;20089;-72
2022/05/14 06:51:31;;;;;;;14.70;3.70;;;;;;;18.27;70.31;102039.03;4959038;28;20145;-72
2022/05/14 06:54:02;;;;;;;18.95;4.13;;;;;;;18.74;68.18;102040.81;4958851;28;20069;-72
2022/05/14 06:56:30;;;;;;;10.98;4.03;;;;;;;19.08;66.27;102059.22;4976983;28;20111;-71
2022/05/14 06:58:58;;;;;;;12.93;3.78;;;;;;;19.40;64.59;102056.50;4971493;28;20502;-71
2022/05/14 07:01:24;;;;;;;16.80;3.20;;;;;;;19.43;63.68;102034.75;4977223;28;20027;-72
2022/05/14 07:06:40;;;;;;;13.15;3.60;;;;;;;20.66;63.54;102063.81;4981186;28;20049;-72
2022/05/14 07:09:15;;;;;;;12.25;3.13;;;;;;;21.09;59.44;102050.50;4982703;28;20042;-72
2022/05/14 07:11:43;;;;;;;8.88;2.70;;;;;;;21.10;57.41;102062.91;4983915;28;20549;-72
2022/05/14 07:14:12;;;;;;;11.57;2.55;;;;;;;21.47;55.02;102061.03;4976285;28;20019;-72
2022/05/14 07:16:38;;;;;;;9.80;2.55;;;;;;;21.53;55.17;102075.53;4976644;28;20381;-72
2022/05/14 07:19:06;;;;;;;8.80;2.22;;;;;;;21.55;54.96;102079.69;4974986;28;20449;-72
2022/05/14 07:21:36;;;;;;;12.00;2.67;;;;;;;22.07;53.62;102061.47;4978826;28;20023;-72
2022/05/14 07:24:07;;;;;;;7.63;2.25;;;;;;;22.29;52.78;102069.50;4960144;28;20041;-72
2022/05/14 07:26:35;;;;;;;10.50;2.83;;;;;;;22.61;52.66;102077.97;4979359;28;20030;-72
2022/05/14 07:29:06;;;;;;;10.23;2.40;;;;;;;22.82;52.44;102091.31;4973726;28;20066;-72
2022/05/14 07:31:31;;;;;;;7.25;2.47;;;;;;;22.85;51.85;102069.34;4979694;28;20018;-72
2022/05/14 07:33:57;;;;;;;10.73;2.10;;;;;;;23.44;50.27;102091.28;4959778;28;20406;-72
2022/05/14 07:36:25;;;;;;;8.18;2.60;;;;;;;23.76;50.73;102090.50;4981185;28;20026;-72
2022/05/14 07:38:52;;;;;;;9.57;2.63;;;;;;;24.26;49.16;102081.06;4979629;28;20026;-72
2022/05/14 07:41:18;;;;;;;10.00;2.47;;;;;;;24.16;48.51;102098.53;4981304;28;20425;-72
2022/05/14 07:43:47;;;;;;;8.68;2.20;;;;;;;24.49;48.74;102086.03;4978947;28;20234;-73
2022/05/14 07:46:19;;;;;;;10.48;2.80;;;;;;;24.84;47.88;102075.72;4967281;28;20390;-73
2022/05/14 07:48:46;;;;;;;7.78;2.40;;;;;;;24.68;47.30;102087.84;4958453;28;20418;-72
2022/05/14 07:51:11;;;;;;;8.65;2.47;;;;;;;24.97;47.49;102088.31;4963512;28;20094;-73
2022/05/14 07:53:38;;;;;;;11.48;3.17;;;;;;;25.36;45.86;102084.56;4960909;28;20027;-72
2022/05/14 07:56:05;;;;;;;12.38;2.60;;;;;;;26.02;45.65;102104.88;4979308;28;20022;-72
2022/05/14 07:58:30;;;;;;;10.05;2.83;;;;;;;26.39;44.20;102101.34;4980976;28;20029;-72
2022/05/14 08:00:58;;;;;;;10.07;2.70;;;;;;;26.09;43.86;102099.41;4969258;28;20030;-73
2022/05/14 08:03:24;;;;;;;8.27;2.60;;;;;;;26.72;44.87;102103.72;4983462;28;20477;-72
2022/05/14 08:05:54;;;;;;;7.78;2.40;;;;;;;27.22;44.05;102106.19;4975505;28;20026;-72
2022/05/14 08:08:20;;;;;;;10.63;3.33;;;;;;;27.42;41.22;102086.09;4976513;28;20540;-72
2022/05/14 08:10:46;;;;;;;9.38;2.55;;;;;;;27.47;42.52;102092.44;4976330;28;20034;-73
2022/05/14 08:13:16;;;;;;;12.60;2.75;;;;;;;27.76;41.22;102100.72;4958759;28;20038;-72
2022/05/14 08:15:42;;;;;;;8.93;2.90;;;;;;;27.83;40.80;102101.47;4979662;28;20030;-71
2022/05/14 08:18:08;;;;;;;12.27;2.70;;;;;;;28.45;40.67;102100.13;4979135;28;20041;-71
2022/05/14 08:20:33;;;;;;;9.98;2.97;;;;;;;28.26;41.44;102104.88;4962876;28;20034;-72
2022/05/14 08:25:43;;;;;;;8.57;2.30;;;;;;;28.81;40.29;102084.56;4980802;28;20037;-72
2022/05/14 08:28:08;;;;;;;10.88;2.90;;;;;;;29.47;38.10;102104.00;4955720;28;20051;-72
2022/05/14 08:30:35;;;;;;;11.75;2.78;;;;;;;29.32;39.01;102096.41;4975755;28;20031;-71
2022/05/14 08:33:02;;;;;;;9.15;2.50;;;;;;;29.41;38.04;102111.25;4951891;28;20083;-72
2022/05/14 08:35:28;;;;;;;10.00;2.63;;;;;;;29.64;39.12;102115.72;4961077;28;20034;-72
2022/05/14 08:37:55;;;;;;;6.60;2.10;;;;;;;29.70;37.86;102108.47;4976865;28;20064;-72
2022/05/14 08:40:37;;;;;;;11.00;2.30;;;;;;;29.84;38.82;102122.59;4952115;28;20276;-72
2022/05/14 08:43:08;;;;;;;12.82;2.92;;;;;;;29.93;38.46;102119.19;4976513;28;20034;-72
2022/05/14 08:45:36;;;;;;;8.45;2.40;;;;;;;30.30;39.11;102124.09;4972671;28;20033;-72
2022/05/14 08:48:10;;;;;;;9.20;2.38;;;;;;;30.53;37.36;102117.56;4974810;28;20033;-71
2022/05/14 08:50:37;;;;;;;8.77;3.22;;;;;;;30.41;38.97;102119.59;4974869;28;20110;-71
2022/05/14 08:53:10;;;;;;;8.85;2.88;;;;;;;30.74;37.12;102115.91;4974910;28;20482;-71
2022/05/14 08:55:49;;;;;;;9.23;2.88;;;;;;;30.83;36.71;102112.72;4973939;28;20440;-71
2022/05/14 08:58:14;;;;;;;8.98;2.78;;;;;;;30.74;37.66;102113.16;4980545;28;20041;-71
2022/05/14 09:00:40;;;;;;;10.77;3.17;;;;;;;31.21;37.69;102122.69;4976264;28;20034;-72
2022/05/14 09:03:05;;;;;;;8.82;2.88;;;;;;;31.78;36.63;102133.03;4972168;28;20287;-72
2022/05/14 09:05:34;;;;;;;8.50;3.05;;;;;;;31.74;35.82;102120.16;4975625;28;20401;-71
2022/05/14 09:08:01;;;;;;;8.82;2.35;;;;;;;32.51;35.81;102126.06;4971952;28;20038;-71
2022/05/14 09:10:38;;;;;;;6.55;2.50;;;;;;;32.81;35.45;102121.84;4984135;28;20040;-71
2022/05/14 09:13:19;;;;;;;8.45;2.30;;;;;;;32.05;34.74;102115.75;4975794;28;20137;-72
2022/05/14 09:15:49;;;;;;;10.00;2.67;;;;;;;32.02;35.94;102116.28;4973446;28;20019;-72
2022/05/14 09:18:22;;;;;;;10.23;3.05;;;;;;;32.60;33.75;102127.25;4976001;28;20121;-72
2022/05/14 09:21:00;;;;;;;7.75;2.70;;;;;;;32.70;35.27;102120.97;4970560;28;20073;-72
2022/05/14 09:23:39;;;;;;;8.85;3.03;;;;;;;32.51;34.87;102140.56;4984081;28;20502;-72
2022/05/14 09:26:17;;;;;;;8.53;2.97;;;;;;;32.95;35.03;102139.38;4969712;28;20117;-72
2022/05/14 09:28:49;;;;;;;10.52;3.22;;;;;;;32.06;35.37;102143.91;4973495;28;20286;-72
2022/05/14 09:31:36;;;;;;;10.38;2.97;;;;;;;32.69;36.35;102136.56;4980433;28;20035;-72
2022/05/14 09:34:14;;;;;;;8.65;2.70;;;;;;;33.16;34.76;102143.81;4972611;28;20043;-72
2022/05/14 09:36:42;;;;;;;9.90;2.97;;;;;;;33.36;34.37;102144.91;4980949;28;20498;-72
2022/05/14 09:39:16;;;;;;;10.70;3.22;;;;;;;32.93;35.08;102125.97;4973706;28;20114;-72
2022/05/14 09:41:56;;;;;;;7.70;3.05;;;;;;;32.75;36.17;102138.25;4977632;28;20034;-72
2022/05/14 09:44:22;;;;;;;;;;;;;;;32.57;36.21;102155.09;4976736;28;20030;-72
2022/05/14 09:46:48;;;;;;;11.00;3.37;;;;;;;31.96;35.90;102147.34;4970531;28;19920;-71
2022/05/14 09:49:23;;;;;;;10.18;3.22;;;;;;;31.94;36.83;102142.13;4973804;28;20131;-71
2022/05/14 09:51:56;;;;;;;9.95;2.78;;;;;;;32.54;35.74;102152.91;4972371;28;20534;-72
2022/05/14 09:54:25;;;;;;;10.73;3.10;;;;;;;32.71;35.19;102152.72;4979565;28;20290;-71
2022/05/14 09:57:11;;;;;;;9.75;3.20;;;;;;;32.55;36.04;102146.34;4975884;28;20101;-71
2022/05/14 10:00:09;;;;;;;8.73;3.15;;;;;;;31.92;35.66;102160.72;4970374;28;20031;-71
2022/05/14 10:02:44;;;;;;;9.70;2.78;;;;;;;30.99;36.83;102152.75;4971713;28;20081;-71
2022/05/14 10:05:48;;;;;;;12.18;3.25;;;;;;;31.67;36.07;102150.41;4969896;28;20126;-70
2022/05/14 10:08:57;;;;;;;12.52;3.63;;;;;;;32.27;34.84;102155.75;4976463;28;20113;-72
2022/05/14 10:11:30;;;;;;;10.07;2.80;;;;;;;33.06;34.91;102162.09;4982053;28;20487;-72
2022/05/14 10:14:20;;;;;;;11.23;3.28;;;;;;;33.60;34.46;102161.66;4978199;28;20076;-71
2022/05/14 10:17:03;;;;;;;15.07;3.03;;;;;;;33.75;34.41;102161.66;4979413;28;20105;-72
2022/05/14 10:19:59;;;;;;;8.80;2.50;;;;;;;33.62;34.21;102156.72;4981695;28;20026;-72
2022/05/14 10:29:13;;;;;;;9.45;3.03;;;;;;;34.48;32.76;102160.41;4980135;28;20443;-71
2022/05/14 10:31:42;;;;;;;13.10;3.42;;;;;;;34.70;32.61;102167.47;4983710;28;20023;-71
2022/05/14 10:34:14;;;;;;;10.93;3.00;;;;;;;35.10;32.66;102174.63;4983110;28;20137;-71
2022/05/14 10:36:48;;;;;;;8.18;2.90;;;;;;;34.06;32.54;102169.84;4960101;28;20270;-71
2022/05/14 10:39:24;;;;;;;12.15;3.50;;;;;;;33.40;34.12;102146.88;4980441;28;20045;-71
2022/05/14 10:41:57;;;;;;;12.73;3.20;;;;;;;33.55;33.90;102162.44;4982245;28;20118;-71
2022/05/14 10:44:49;;;;;;;12.05;3.45;;;;;;;33.93;33.62;102145.75;4957410;28;20033;-71
2022/05/14 10:47:15;;;;;;;9.23;3.22;;;;;;;34.25;31.99;102174.75;4981862;28;20034;-71
2022/05/14 10:49:59;;;;;;;9.88;2.72;;;;;;;33.91;33.67;102167.13;4980610;28;20532;-71
2022/05/14 10:52:25;;;;;;;7.40;3.08;;;;;;;34.73;32.61;102156.75;4963904;28;20034;-71
2022/05/14 10:54:51;;;;;;;10.75;3.15;;;;;;;34.54;33.02;102161.22;4962505;28;20061;-71
2022/05/14 10:57:19;;;;;;;10.48;2.85;;;;;;;34.76;32.70;102175.41;4961777;28;20038;-71
2022/05/14 10:59:50;;;;;;;10.05;3.20;;;;;;;34.42;32.42;102176.03;4973628;28;20497;-71
2022/05/14 11:02:32;;;;;;;12.20;2.90;;;;;;;35.33;32.00;102180.56;4984683;28;20031;-71
2022/05/14 11:04:59;;;;;;;12.98;3.45;;;;;;;35.08;32.10;102168.63;4986771;28;20565;-71
2022/05/14 11:07:35;;;;;;;7.63;3.08;;;;;;;35.40;31.76;102181.88;4971708;28;20126;-71
2022/05/14 11:10:34;;;;;;;9.55;3.20;;;;;;;35.70;31.67;102170.97;4974232;28;20033;-71
2022/05/14 11:13:24;;;;;;;11.55;3.22;;;;;;;34.41;32.28;102148.94;4959824;28;20026;-71
2022/05/14 11:16:10;;;;;;;11.32;3.10;;;;;;;34.36;32.43;102179.09;4974241;28;20264;-72
2022/05/14 11:19:04;;;;;;;11.50;3.55;;;;;;;34.08;32.24;102177.75;4973880;28;20206;-71
2022/05/14 11:21:40;;;;;;;9.40;2.80;;;;;;;33.15;33.59;102155.03;4972780;28;20050;-71
2022/05/14 11:24:06;;;;;;;10.55;3.03;;;;;;;33.22;33.70;102165.72;4977035;28;20109;-71
2022/05/14 11:26:44;;;;;;;13.63;3.25;;;;;;;34.25;34.17;102178.28;4968935;28;20058;-71
2022/05/14 11:29:14;;;;;;;12.50;3.75;;;;;;;34.41;32.62;102171.69;4976018;28;20485;-71
2022/05/14 11:31:51;;;;;;;11.90;3.55;;;;;;;34.64;32.22;102180.38;4971294;28;20508;-72
2022/05/14 11:34:24;;;;;;;9.02;3.15;;;;;;;34.91;32.09;102173.66;4977471;28;20101;-72
2022/05/14 11:36:56;;;;;;;10.95;3.67;;;;;;;35.15;32.80;102173.84;4978452;28;20157;-72
2022/05/14 11:39:24;;;;;;;8.52;3.17;;;;;;;35.16;32.86;102184.50;4975537;28;20276;-72
2022/05/14 11:42:07;;;;;;;12.68;3.45;;;;;;;34.14;33.12;102172.00;4972775;28;20216;-72
2022/05/14 11:44:47;;;;;;;11.65;3.53;;;;;;;34.12;33.98;102174.22;4975898;28;20033;-72
2022/05/14 11:47:50;;;;;;;8.75;3.38;;;;;;;34.78;32.79;102175.13;4975642;28;20027;-72